sensor_id;sensor_type;location;lat;lon;timestamp;pressure;altitude;pressure_sealevel;temperature;humidity
11605;BME280;5858;43.076;25.626;2023-03-31T00:02:04;99266.00;;;8.21;44.12
11605;BME280;5858;43.076;25.626;2023-03-31T00:04:38;99265.50;;;8.26;44.69
11605;BME280;5858;43.076;25.626;2023-03-31T00:07:11;99262.19;;;8.16;44.47
11605;BME280;5858;43.076;25.626;2023-03-31T00:09:39;99244.19;;;8.02;44.57
11605;BME280;5858;43.076;25.626;2023-03-31T00:12:10;99247.72;;;8.10;44.49
11605;BME280;5858;43.076;25.626;2023-03-31T00:14:39;99241.22;;;8.13;44.19
11605;BME280;5858;43.076;25.626;2023-03-31T00:17:06;99251.56;;;8.08;44.44
11605;BME280;5858;43.076;25.626;2023-03-31T00:19:34;99226.06;;;8.05;45.04
11605;BME280;5858;43.076;25.626;2023-03-31T00:22:01;99156.53;;;7.43;44.86
11605;BME280;5858;43.076;25.626;2023-03-31T00:24:30;99235.72;;;8.06;45.16
11605;BME280;5858;43.076;25.626;2023-03-31T00:26:58;99227.91;;;7.97;45.20
11605;BME280;5858;43.076;25.626;2023-03-31T00:29:25;99174.81;;;7.54;45.36
11605;BME280;5858;43.076;25.626;2023-03-31T00:31:54;99205.47;;;7.75;45.55
11605;BME280;5858;43.076;25.626;2023-03-31T00:34:21;99217.94;;;7.82;46.26
11605;BME280;5858;43.076;25.626;2023-03-31T00:36:48;99216.78;;;7.77;45.95
11605;BME280;5858;43.076;25.626;2023-03-31T00:39:17;99136.41;;;7.33;45.39
11605;BME280;5858;43.076;25.626;2023-03-31T00:41:44;99206.97;;;7.69;45.63
11605;BME280;5858;43.076;25.626;2023-03-31T00:44:13;99170.00;;;7.50;45.58
11605;BME280;5858;43.076;25.626;2023-03-31T00:46:51;99212.28;;;7.77;46.50
11605;BME280;5858;43.076;25.626;2023-03-31T00:49:26;99185.66;;;7.61;47.42
11605;BME280;5858;43.076;25.626;2023-03-31T00:51:58;99198.66;;;7.64;47.90
11605;BME280;5858;43.076;25.626;2023-03-31T00:54:27;99192.00;;;7.60;47.94
11605;BME280;5858;43.076;25.626;2023-03-31T00:56:55;99194.31;;;7.63;48.21
11605;BME280;5858;43.076;25.626;2023-03-31T00:59:29;99160.03;;;7.28;47.96
11605;BME280;5858;43.076;25.626;2023-03-31T01:01:58;99195.97;;;7.48;48.53
11605;BME280;5858;43.076;25.626;2023-03-31T01:04:31;99153.88;;;7.19;48.94
11605;BME280;5858;43.076;25.626;2023-03-31T01:07:04;99136.22;;;7.02;49.66
11605;BME280;5858;43.076;25.626;2023-03-31T01:09:34;99098.16;;;6.85;49.89
11605;BME280;5858;43.076;25.626;2023-03-31T01:12:06;99178.84;;;7.26;49.58
11605;BME280;5858;43.076;25.626;2023-03-31T01:14:34;99181.16;;;7.29;50.47
11605;BME280;5858;43.076;25.626;2023-03-31T01:17:03;99143.72;;;7.06;50.07
11605;BME280;5858;43.076;25.626;2023-03-31T01:19:44;99165.84;;;7.15;50.25
11605;BME280;5858;43.076;25.626;2023-03-31T01:25:53;99164.19;;;7.22;50.78
11605;BME280;5858;43.076;25.626;2023-03-31T01:28:32;99152.06;;;7.19;51.85
11605;BME280;5858;43.076;25.626;2023-03-31T01:31:24;99152.72;;;7.21;51.05
11605;BME280;5858;43.076;25.626;2023-03-31T01:37:21;99137.22;;;7.09;50.60
11605;BME280;5858;43.076;25.626;2023-03-31T01:40:15;99159.03;;;7.29;49.74
11605;BME280;5858;43.076;25.626;2023-03-31T01:42:50;99139.09;;;7.24;49.65
11605;BME280;5858;43.076;25.626;2023-03-31T01:45:31;99167.19;;;7.35;49.70
11605;BME280;5858;43.076;25.626;2023-03-31T01:48:06;99156.69;;;7.42;50.52
11605;BME280;5858;43.076;25.626;2023-03-31T01:50:41;99156.19;;;7.46;50.11
11605;BME280;5858;43.076;25.626;2023-03-31T01:53:15;99152.53;;;7.55;50.23
11605;BME280;5858;43.076;25.626;2023-03-31T01:55:50;99019.38;;;6.68;50.19
11605;BME280;5858;43.076;25.626;2023-03-31T01:58:23;99136.25;;;7.42;50.57
11605;BME280;5858;43.076;25.626;2023-03-31T02:00:57;99133.25;;;7.45;50.89
11605;BME280;5858;43.076;25.626;2023-03-31T02:03:29;99113.63;;;7.30;51.47
11605;BME280;5858;43.076;25.626;2023-03-31T02:06:03;99136.56;;;7.55;50.77
11605;BME280;5858;43.076;25.626;2023-03-31T02:08:36;99125.59;;;7.42;50.64
11605;BME280;5858;43.076;25.626;2023-03-31T02:11:05;99096.84;;;7.30;51.51
11605;BME280;5858;43.076;25.626;2023-03-31T02:13:33;99089.00;;;7.36;50.33
11605;BME280;5858;43.076;25.626;2023-03-31T02:16:06;99051.44;;;7.15;51.18
11605;BME280;5858;43.076;25.626;2023-03-31T02:18:35;99050.94;;;7.19;50.16
11605;BME280;5858;43.076;25.626;2023-03-31T02:21:06;99113.41;;;7.56;50.28
11605;BME280;5858;43.076;25.626;2023-03-31T02:23:36;99133.53;;;7.83;50.09
11605;BME280;5858;43.076;25.626;2023-03-31T02:26:09;99100.94;;;7.73;50.47
11605;BME280;5858;43.076;25.626;2023-03-31T02:28:38;99105.09;;;7.75;50.48
11605;BME280;5858;43.076;25.626;2023-03-31T02:31:12;99089.97;;;7.68;50.58
11605;BME280;5858;43.076;25.626;2023-03-31T02:33:46;99044.59;;;7.37;51.28
11605;BME280;5858;43.076;25.626;2023-03-31T02:36:14;99078.00;;;7.64;50.91
11605;BME280;5858;43.076;25.626;2023-03-31T02:38:45;99127.00;;;7.94;51.12
11605;BME280;5858;43.076;25.626;2023-03-31T02:41:14;99115.34;;;7.95;51.57
11605;BME280;5858;43.076;25.626;2023-03-31T02:43:41;99129.97;;;8.07;50.67
11605;BME280;5858;43.076;25.626;2023-03-31T02:46:08;99097.59;;;7.79;50.63
11605;BME280;5858;43.076;25.626;2023-03-31T02:48:37;99101.56;;;7.83;51.25
11605;BME280;5858;43.076;25.626;2023-03-31T02:54:26;99125.66;;;8.06;51.06
11605;BME280;5858;43.076;25.626;2023-03-31T02:57:25;99130.94;;;8.14;52.20
11605;BME280;5858;43.076;25.626;2023-03-31T03:00:06;99121.16;;;7.98;52.92
11605;BME280;5858;43.076;25.626;2023-03-31T03:02:41;99123.34;;;7.95;52.55
11605;BME280;5858;43.076;25.626;2023-03-31T03:05:18;99109.19;;;7.94;52.71
11605;BME280;5858;43.076;25.626;2023-03-31T03:07:53;99115.84;;;7.90;53.13
11605;BME280;5858;43.076;25.626;2023-03-31T03:10:29;99124.34;;;7.94;52.28
11605;BME280;5858;43.076;25.626;2023-03-31T03:13:08;99123.66;;;7.92;52.00
11605;BME280;5858;43.076;25.626;2023-03-31T03:15:44;99030.13;;;7.31;52.65
11605;BME280;5858;43.076;25.626;2023-03-31T03:18:13;99083.00;;;7.58;51.72
11605;BME280;5858;43.076;25.626;2023-03-31T03:20:41;99083.16;;;7.65;51.97
11605;BME280;5858;43.076;25.626;2023-03-31T03:23:13;99136.47;;;7.96;52.41
11605;BME280;5858;43.076;25.626;2023-03-31T03:25:40;99142.81;;;7.95;53.61
11605;BME280;5858;43.076;25.626;2023-03-31T03:28:08;99143.13;;;8.00;53.08
11605;BME280;5858;43.076;25.626;2023-03-31T03:30:36;99119.66;;;7.96;53.02
11605;BME280;5858;43.076;25.626;2023-03-31T03:33:03;99140.47;;;8.08;52.99
11605;BME280;5858;43.076;25.626;2023-03-31T03:35:30;99107.41;;;7.78;53.00
11605;BME280;5858;43.076;25.626;2023-03-31T03:37:57;99118.50;;;7.90;52.84
11605;BME280;5858;43.076;25.626;2023-03-31T03:40:24;99143.13;;;8.08;52.23
11605;BME280;5858;43.076;25.626;2023-03-31T03:42:51;99130.97;;;7.98;51.77
11605;BME280;5858;43.076;25.626;2023-03-31T03:45:20;99119.63;;;8.04;50.94
11605;BME280;5858;43.076;25.626;2023-03-31T03:47:47;99145.09;;;8.14;51.35
11605;BME280;5858;43.076;25.626;2023-03-31T03:50:15;99147.78;;;8.14;52.00
11605;BME280;5858;43.076;25.626;2023-03-31T03:52:42;99120.69;;;7.86;52.33
11605;BME280;5858;43.076;25.626;2023-03-31T03:55:09;99112.56;;;7.80;53.86
11605;BME280;5858;43.076;25.626;2023-03-31T03:57:36;99130.63;;;8.01;52.60
11605;BME280;5858;43.076;25.626;2023-03-31T04:00:05;99140.59;;;8.15;51.90
11605;BME280;5858;43.076;25.626;2023-03-31T04:02:36;99146.94;;;8.14;51.98
11605;BME280;5858;43.076;25.626;2023-03-31T04:05:03;99146.09;;;8.13;51.75
11605;BME280;5858;43.076;25.626;2023-03-31T04:07:30;99155.59;;;8.16;51.71
11605;BME280;5858;43.076;25.626;2023-03-31T04:09:57;99166.25;;;8.16;52.85
11605;BME280;5858;43.076;25.626;2023-03-31T04:12:24;99166.28;;;8.08;52.72
11605;BME280;5858;43.076;25.626;2023-03-31T04:14:51;99180.94;;;8.12;52.72
11605;BME280;5858;43.076;25.626;2023-03-31T04:17:18;99177.94;;;8.07;52.19
11605;BME280;5858;43.076;25.626;2023-03-31T04:19:58;99176.28;;;8.06;51.63
11605;BME280;5858;43.076;25.626;2023-03-31T04:22:29;99176.28;;;8.06;50.91
11605;BME280;5858;43.076;25.626;2023-03-31T04:25:00;99167.59;;;8.12;50.52
11605;BME280;5858;43.076;25.626;2023-03-31T04:27:28;99186.06;;;8.21;50.57
11605;BME280;5858;43.076;25.626;2023-03-31T04:29:55;99105.09;;;7.67;50.54
11605;BME280;5858;43.076;25.626;2023-03-31T04:32:23;99103.63;;;7.48;51.63
11605;BME280;5858;43.076;25.626;2023-03-31T04:34:49;99210.56;;;8.09;50.33
11605;BME280;5858;43.076;25.626;2023-03-31T04:37:28;99182.94;;;7.94;50.48
11605;BME280;5858;43.076;25.626;2023-03-31T04:39:59;99209.91;;;8.15;50.75
11605;BME280;5858;43.076;25.626;2023-03-31T04:42:32;99193.56;;;8.18;51.80
11605;BME280;5858;43.076;25.626;2023-03-31T04:44:59;99194.19;;;8.28;53.52
11605;BME280;5858;43.076;25.626;2023-03-31T04:47:27;99111.69;;;7.87;55.24
11605;BME280;5858;43.076;25.626;2023-03-31T04:49:54;99191.88;;;8.25;55.73
11605;BME280;5858;43.076;25.626;2023-03-31T04:52:21;99192.25;;;8.14;55.62
11605;BME280;5858;43.076;25.626;2023-03-31T04:54:49;99176.44;;;8.12;58.59
11605;BME280;5858;43.076;25.626;2023-03-31T04:57:16;99189.72;;;8.20;58.91
11605;BME280;5858;43.076;25.626;2023-03-31T04:59:43;99189.56;;;8.14;56.40
11605;BME280;5858;43.076;25.626;2023-03-31T05:02:10;99164.63;;;7.99;57.56
11605;BME280;5858;43.076;25.626;2023-03-31T05:04:37;99194.88;;;8.22;56.37
11605;BME280;5858;43.076;25.626;2023-03-31T05:07:04;99174.94;;;8.10;57.29
11605;BME280;5858;43.076;25.626;2023-03-31T05:09:31;99177.22;;;8.21;57.47
11605;BME280;5858;43.076;25.626;2023-03-31T05:11:59;99183.19;;;8.39;57.36
11605;BME280;5858;43.076;25.626;2023-03-31T05:14:26;99187.47;;;8.48;57.68
11605;BME280;5858;43.076;25.626;2023-03-31T05:16:54;99178.97;;;8.53;57.79
11605;BME280;5858;43.076;25.626;2023-03-31T05:19:25;99175.94;;;8.64;57.39
11605;BME280;5858;43.076;25.626;2023-03-31T05:21:52;99191.56;;;8.67;58.79
11605;BME280;5858;43.076;25.626;2023-03-31T05:24:19;99177.00;;;8.78;58.23
11605;BME280;5858;43.076;25.626;2023-03-31T05:26:46;99165.22;;;8.72;58.24
11605;BME280;5858;43.076;25.626;2023-03-31T05:29:19;99174.25;;;8.94;57.20
11605;BME280;5858;43.076;25.626;2023-03-31T05:31:46;99150.63;;;8.83;56.93
11605;BME280;5858;43.076;25.626;2023-03-31T05:34:14;99115.59;;;8.63;58.07
11605;BME280;5858;43.076;25.626;2023-03-31T05:36:41;99174.22;;;9.02;58.68
11605;BME280;5858;43.076;25.626;2023-03-31T05:39:09;99161.06;;;8.93;59.34
11605;BME280;5858;43.076;25.626;2023-03-31T05:41:36;99170.47;;;9.11;59.95
11605;BME280;5858;43.076;25.626;2023-03-31T05:44:03;99164.31;;;9.11;60.91
11605;BME280;5858;43.076;25.626;2023-03-31T05:46:32;99107.13;;;8.82;62.13
11605;BME280;5858;43.076;25.626;2023-03-31T05:48:59;99140.66;;;9.08;63.08
11605;BME280;5858;43.076;25.626;2023-03-31T05:51:27;99158.84;;;9.04;65.53
11605;BME280;5858;43.076;25.626;2023-03-31T05:53:54;99148.97;;;8.82;67.34
11605;BME280;5858;43.076;25.626;2023-03-31T05:56:21;99154.53;;;8.72;67.20
11605;BME280;5858;43.076;25.626;2023-03-31T05:58:48;99147.41;;;8.65;70.41
11605;BME280;5858;43.076;25.626;2023-03-31T06:01:16;99156.81;;;8.52;71.57
11605;BME280;5858;43.076;25.626;2023-03-31T06:03:47;99152.50;;;8.51;71.11
11605;BME280;5858;43.076;25.626;2023-03-31T06:06:15;99180.94;;;8.59;71.51
11605;BME280;5858;43.076;25.626;2023-03-31T06:08:42;99158.59;;;8.60;71.94
11605;BME280;5858;43.076;25.626;2023-03-31T06:11:12;99160.94;;;8.63;72.29
11605;BME280;5858;43.076;25.626;2023-03-31T06:13:40;99123.69;;;8.39;73.52
11605;BME280;5858;43.076;25.626;2023-03-31T06:16:09;99140.78;;;8.61;75.55
11605;BME280;5858;43.076;25.626;2023-03-31T06:18:37;99154.66;;;8.79;75.51
11605;BME280;5858;43.076;25.626;2023-03-31T06:21:06;99154.59;;;8.87;76.46
11605;BME280;5858;43.076;25.626;2023-03-31T06:23:33;99123.97;;;8.83;79.04
11605;BME280;5858;43.076;25.626;2023-03-31T06:26:03;99156.22;;;8.96;78.53
11605;BME280;5858;43.076;25.626;2023-03-31T06:28:30;99080.25;;;8.61;76.38
11605;BME280;5858;43.076;25.626;2023-03-31T06:30:59;99124.00;;;8.98;77.26
11605;BME280;5858;43.076;25.626;2023-03-31T06:33:26;99152.97;;;9.09;75.69
11605;BME280;5858;43.076;25.626;2023-03-31T06:35:54;99128.38;;;8.99;75.52
11605;BME280;5858;43.076;25.626;2023-03-31T06:38:23;99146.34;;;9.05;78.16
11605;BME280;5858;43.076;25.626;2023-03-31T06:40:50;99135.31;;;9.08;79.63
11605;BME280;5858;43.076;25.626;2023-03-31T06:43:17;99116.34;;;9.03;79.24
11605;BME280;5858;43.076;25.626;2023-03-31T06:45:45;99129.19;;;8.99;80.71
11605;BME280;5858;43.076;25.626;2023-03-31T06:48:12;99154.69;;;9.25;80.30
11605;BME280;5858;43.076;25.626;2023-03-31T06:50:40;99152.06;;;9.39;80.70
11605;BME280;5858;43.076;25.626;2023-03-31T06:53:07;99136.03;;;9.39;81.36
11605;BME280;5858;43.076;25.626;2023-03-31T06:55:37;99097.44;;;9.27;81.82
11605;BME280;5858;43.076;25.626;2023-03-31T06:58:04;99126.19;;;9.40;84.33
11605;BME280;5858;43.076;25.626;2023-03-31T07:00:32;99142.56;;;9.60;81.18
11605;BME280;5858;43.076;25.626;2023-03-31T07:02:59;99063.75;;;9.26;79.78
11605;BME280;5858;43.076;25.626;2023-03-31T07:05:29;99143.31;;;9.83;77.85
11605;BME280;5858;43.076;25.626;2023-03-31T07:07:57;99071.13;;;9.39;76.40
11605;BME280;5858;43.076;25.626;2023-03-31T07:10:26;99144.16;;;9.84;76.40
11605;BME280;5858;43.076;25.626;2023-03-31T07:12:56;99142.72;;;9.96;77.53
11605;BME280;5858;43.076;25.626;2023-03-31T07:15:24;99136.53;;;9.95;77.73
11605;BME280;5858;43.076;25.626;2023-03-31T07:17:55;99110.97;;;9.93;77.14
11605;BME280;5858;43.076;25.626;2023-03-31T07:20:26;99126.47;;;10.12;76.85
11605;BME280;5858;43.076;25.626;2023-03-31T07:22:54;99045.38;;;9.90;77.57
11605;BME280;5858;43.076;25.626;2023-03-31T07:25:21;99112.19;;;10.49;78.35
11605;BME280;5858;43.076;25.626;2023-03-31T07:27:49;99092.00;;;10.32;79.19
11605;BME280;5858;43.076;25.626;2023-03-31T07:30:19;99099.44;;;10.51;80.55
11605;BME280;5858;43.076;25.626;2023-03-31T07:32:48;99103.28;;;10.63;82.70
11605;BME280;5858;43.076;25.626;2023-03-31T07:35:16;99096.66;;;10.59;83.35
11605;BME280;5858;43.076;25.626;2023-03-31T07:37:47;99109.41;;;10.57;82.57
11605;BME280;5858;43.076;25.626;2023-03-31T07:40:17;99106.66;;;10.51;83.22
11605;BME280;5858;43.076;25.626;2023-03-31T07:42:44;99068.75;;;10.32;84.10
11605;BME280;5858;43.076;25.626;2023-03-31T07:45:14;99098.44;;;10.52;84.66
11605;BME280;5858;43.076;25.626;2023-03-31T07:47:43;99059.84;;;10.25;86.41
11605;BME280;5858;43.076;25.626;2023-03-31T07:50:11;99046.28;;;10.27;87.07
11605;BME280;5858;43.076;25.626;2023-03-31T07:52:38;99078.63;;;10.47;88.67
11605;BME280;5858;43.076;25.626;2023-03-31T07:55:07;99097.00;;;10.71;88.13
11605;BME280;5858;43.076;25.626;2023-03-31T07:57:34;99062.72;;;10.60;87.90
11605;BME280;5858;43.076;25.626;2023-03-31T08:00:03;99075.31;;;10.87;87.77
11605;BME280;5858;43.076;25.626;2023-03-31T08:02:33;99078.72;;;10.96;87.21
11605;BME280;5858;43.076;25.626;2023-03-31T08:05:05;99065.25;;;11.11;86.01
11605;BME280;5858;43.076;25.626;2023-03-31T08:07:35;99065.63;;;11.29;84.53
11605;BME280;5858;43.076;25.626;2023-03-31T08:10:03;99050.19;;;11.31;81.75
11605;BME280;5858;43.076;25.626;2023-03-31T08:12:31;99070.03;;;11.71;80.42
11605;BME280;5858;43.076;25.626;2023-03-31T08:14:58;99051.47;;;11.70;78.66
11605;BME280;5858;43.076;25.626;2023-03-31T08:17:25;99050.31;;;11.79;78.62
11605;BME280;5858;43.076;25.626;2023-03-31T08:19:52;99054.75;;;11.93;78.76
11605;BME280;5858;43.076;25.626;2023-03-31T08:22:21;99055.22;;;12.03;78.70
11605;BME280;5858;43.076;25.626;2023-03-31T08:24:48;99008.13;;;11.87;77.68
11605;BME280;5858;43.076;25.626;2023-03-31T08:27:15;99045.78;;;12.20;77.48
11605;BME280;5858;43.076;25.626;2023-03-31T08:29:42;99036.41;;;12.44;78.30
11605;BME280;5858;43.076;25.626;2023-03-31T08:32:10;99042.69;;;12.78;77.63
11605;BME280;5858;43.076;25.626;2023-03-31T08:34:37;99044.16;;;13.13;76.63
11605;BME280;5858;43.076;25.626;2023-03-31T08:37:07;99038.81;;;13.33;74.54
11605;BME280;5858;43.076;25.626;2023-03-31T08:39:35;99023.53;;;13.34;72.72
11605;BME280;5858;43.076;25.626;2023-03-31T08:42:06;99028.88;;;13.53;72.92
11605;BME280;5858;43.076;25.626;2023-03-31T08:44:38;99033.44;;;13.40;72.30
11605;BME280;5858;43.076;25.626;2023-03-31T08:47:14;98985.25;;;13.05;73.17
11605;BME280;5858;43.076;25.626;2023-03-31T08:49:46;99018.53;;;13.24;73.15
11605;BME280;5858;43.076;25.626;2023-03-31T08:52:17;99004.88;;;13.12;74.31
11605;BME280;5858;43.076;25.626;2023-03-31T08:54:51;98982.38;;;13.13;74.20
11605;BME280;5858;43.076;25.626;2023-03-31T08:57:24;98997.91;;;13.31;73.32
11605;BME280;5858;43.076;25.626;2023-03-31T08:59:53;98980.31;;;13.42;72.58
11605;BME280;5858;43.076;25.626;2023-03-31T09:02:29;98987.91;;;13.58;73.18
11605;BME280;5858;43.076;25.626;2023-03-31T09:05:24;98978.53;;;13.87;72.93
11605;BME280;5858;43.076;25.626;2023-03-31T09:08:03;98969.25;;;13.83;71.59
11605;BME280;5858;43.076;25.626;2023-03-31T09:10:40;98974.78;;;13.95;70.38
11605;BME280;5858;43.076;25.626;2023-03-31T09:13:44;98963.06;;;14.21;70.17
11605;BME280;5858;43.076;25.626;2023-03-31T09:16:14;98952.59;;;14.44;68.78
11605;BME280;5858;43.076;25.626;2023-03-31T09:18:42;98951.03;;;14.61;68.53
11605;BME280;5858;43.076;25.626;2023-03-31T09:21:16;98939.91;;;14.51;69.50
11605;BME280;5858;43.076;25.626;2023-03-31T09:23:48;98954.22;;;14.52;69.91
11605;BME280;5858;43.076;25.626;2023-03-31T09:26:24;98950.16;;;14.36;70.04
11605;BME280;5858;43.076;25.626;2023-03-31T09:28:55;98938.22;;;14.18;72.76
11605;BME280;5858;43.076;25.626;2023-03-31T09:31:23;98932.00;;;14.25;72.46
11605;BME280;5858;43.076;25.626;2023-03-31T09:33:54;98928.06;;;14.27;72.37
11605;BME280;5858;43.076;25.626;2023-03-31T09:36:25;98773.16;;;13.43;71.93
11605;BME280;5858;43.076;25.626;2023-03-31T09:38:53;98926.34;;;14.71;71.82
11605;BME280;5858;43.076;25.626;2023-03-31T09:41:20;98902.50;;;14.93;71.02
11605;BME280;5858;43.076;25.626;2023-03-31T09:43:49;98899.81;;;15.36;69.45
11605;BME280;5858;43.076;25.626;2023-03-31T09:46:28;98878.00;;;15.56;70.43
11605;BME280;5858;43.076;25.626;2023-03-31T09:49:01;98895.31;;;16.15;66.54
11605;BME280;5858;43.076;25.626;2023-03-31T09:51:33;98886.59;;;16.43;64.32
11605;BME280;5858;43.076;25.626;2023-03-31T09:54:08;98882.47;;;16.70;63.85
11605;BME280;5858;43.076;25.626;2023-03-31T09:56:47;98842.63;;;16.77;62.74
11605;BME280;5858;43.076;25.626;2023-03-31T09:59:19;98857.28;;;17.28;61.18
11605;BME280;5858;43.076;25.626;2023-03-31T10:01:49;98852.44;;;17.53;60.89
11605;BME280;5858;43.076;25.626;2023-03-31T10:04:20;98852.75;;;17.69;57.53
11605;BME280;5858;43.076;25.626;2023-03-31T10:06:48;98862.38;;;17.76;53.58
11605;BME280;5858;43.076;25.626;2023-03-31T10:09:18;98821.84;;;17.53;52.32
11605;BME280;5858;43.076;25.626;2023-03-31T10:11:55;98781.03;;;17.14;52.96
11605;BME280;5858;43.076;25.626;2023-03-31T10:14:38;98843.56;;;17.06;51.22
11605;BME280;5858;43.076;25.626;2023-03-31T10:17:16;98852.84;;;16.87;51.96
11605;BME280;5858;43.076;25.626;2023-03-31T10:19:47;98802.63;;;16.44;51.99
11605;BME280;5858;43.076;25.626;2023-03-31T10:22:17;98852.38;;;16.66;53.18
11605;BME280;5858;43.076;25.626;2023-03-31T10:24:52;98855.53;;;16.63;53.73
11605;BME280;5858;43.076;25.626;2023-03-31T10:27:22;98868.78;;;16.65;55.71
11605;BME280;5858;43.076;25.626;2023-03-31T10:29:53;98841.75;;;16.42;57.49
11605;BME280;5858;43.076;25.626;2023-03-31T10:32:24;98852.06;;;16.33;56.71
11605;BME280;5858;43.076;25.626;2023-03-31T10:34:54;98865.66;;;16.26;58.25
11605;BME280;5858;43.076;25.626;2023-03-31T10:37:24;98849.50;;;16.08;59.42
11605;BME280;5858;43.076;25.626;2023-03-31T10:39:56;98866.56;;;16.09;59.56
11605;BME280;5858;43.076;25.626;2023-03-31T10:42:24;98853.47;;;15.94;58.95
11605;BME280;5858;43.076;25.626;2023-03-31T10:47:53;98757.59;;;15.31;58.83
11605;BME280;5858;43.076;25.626;2023-03-31T10:50:26;98835.25;;;15.89;59.36
11605;BME280;5858;43.076;25.626;2023-03-31T10:53:00;98845.59;;;15.92;59.61
11605;BME280;5858;43.076;25.626;2023-03-31T10:55:34;98848.16;;;15.87;58.61
11605;BME280;5858;43.076;25.626;2023-03-31T10:58:07;98831.63;;;15.84;59.60
11605;BME280;5858;43.076;25.626;2023-03-31T11:00:44;98840.44;;;15.91;57.81
11605;BME280;5858;43.076;25.626;2023-03-31T11:06:25;98829.53;;;15.97;56.63
11605;BME280;5858;43.076;25.626;2023-03-31T11:09:05;98838.19;;;16.18;56.53
11605;BME280;5858;43.076;25.626;2023-03-31T11:11:50;98821.19;;;16.29;55.76
11605;BME280;5858;43.076;25.626;2023-03-31T11:14:28;98795.00;;;16.41;54.53
11605;BME280;5858;43.076;25.626;2023-03-31T11:17:06;98819.38;;;16.88;52.45
11605;BME280;5858;43.076;25.626;2023-03-31T11:19:42;98812.06;;;17.00;52.50
11605;BME280;5858;43.076;25.626;2023-03-31T11:22:20;98787.94;;;17.22;51.09
11605;BME280;5858;43.076;25.626;2023-03-31T11:25:13;98804.78;;;17.52;52.24
11605;BME280;5858;43.076;25.626;2023-03-31T11:27:58;98794.03;;;17.69;50.45
11605;BME280;5858;43.076;25.626;2023-03-31T11:30:30;98792.06;;;18.10;50.71
11605;BME280;5858;43.076;25.626;2023-03-31T11:33:10;98747.94;;;18.09;47.54
11605;BME280;5858;43.076;25.626;2023-03-31T11:35:53;98787.66;;;18.71;47.31
11605;BME280;5858;43.076;25.626;2023-03-31T11:38:41;98754.84;;;18.89;47.37
11605;BME280;5858;43.076;25.626;2023-03-31T11:41:14;98771.19;;;18.94;45.36
11605;BME280;5858;43.076;25.626;2023-03-31T11:43:45;98778.66;;;18.87;45.84
11605;BME280;5858;43.076;25.626;2023-03-31T11:46:16;98775.19;;;18.70;45.78
11605;BME280;5858;43.076;25.626;2023-03-31T11:48:50;98763.59;;;18.58;45.28
11605;BME280;5858;43.076;25.626;2023-03-31T11:51:25;98769.97;;;18.85;45.89
11605;BME280;5858;43.076;25.626;2023-03-31T11:53:57;98731.31;;;18.56;45.49
11605;BME280;5858;43.076;25.626;2023-03-31T11:56:30;98760.06;;;18.57;44.77
11605;BME280;5858;43.076;25.626;2023-03-31T11:59:15;98745.75;;;18.78;45.25
11605;BME280;5858;43.076;25.626;2023-03-31T12:01:47;98748.59;;;18.50;46.42
11605;BME280;5858;43.076;25.626;2023-03-31T12:04:24;98760.63;;;18.59;45.40
11605;BME280;5858;43.076;25.626;2023-03-31T12:06:58;98733.72;;;18.36;45.57
11605;BME280;5858;43.076;25.626;2023-03-31T12:09:36;98744.38;;;18.42;45.64
11605;BME280;5858;43.076;25.626;2023-03-31T12:12:08;98746.75;;;18.39;45.61
11605;BME280;5858;43.076;25.626;2023-03-31T12:14:39;98705.97;;;18.45;45.83
11605;BME280;5858;43.076;25.626;2023-03-31T12:17:10;98741.41;;;18.61;45.04
11605;BME280;5858;43.076;25.626;2023-03-31T12:19:45;98747.19;;;18.64;45.03
11605;BME280;5858;43.076;25.626;2023-03-31T12:22:17;98730.94;;;18.64;45.58
11605;BME280;5858;43.076;25.626;2023-03-31T12:24:47;98725.00;;;18.67;45.66
11605;BME280;5858;43.076;25.626;2023-03-31T12:27:17;98726.97;;;18.72;45.71
11605;BME280;5858;43.076;25.626;2023-03-31T12:29:52;98709.81;;;18.66;45.45
11605;BME280;5858;43.076;25.626;2023-03-31T12:32:22;98716.31;;;18.87;45.40
11605;BME280;5858;43.076;25.626;2023-03-31T12:34:55;98660.78;;;18.90;44.37
11605;BME280;5858;43.076;25.626;2023-03-31T12:37:46;98680.88;;;19.15;41.60
11605;BME280;5858;43.076;25.626;2023-03-31T12:40:26;98678.72;;;19.39;41.50
11605;BME280;5858;43.076;25.626;2023-03-31T12:46:09;98704.81;;;19.72;40.13
11605;BME280;5858;43.076;25.626;2023-03-31T12:48:52;98709.47;;;19.77;40.84
11605;BME280;5858;43.076;25.626;2023-03-31T12:51:36;98692.75;;;19.36;40.21
11605;BME280;5858;43.076;25.626;2023-03-31T12:54:21;98679.59;;;19.23;41.25
11605;BME280;5858;43.076;25.626;2023-03-31T12:57:13;98662.28;;;19.02;42.62
11605;BME280;5858;43.076;25.626;2023-03-31T12:59:42;98686.50;;;19.09;43.00
11605;BME280;5858;43.076;25.626;2023-03-31T13:02:20;98673.84;;;18.93;43.80
11605;BME280;5858;43.076;25.626;2023-03-31T13:04:48;98677.13;;;18.95;44.16
11605;BME280;5858;43.076;25.626;2023-03-31T13:07:34;98659.38;;;18.87;44.16
11605;BME280;5858;43.076;25.626;2023-03-31T13:10:24;98633.34;;;18.86;43.83
11605;BME280;5858;43.076;25.626;2023-03-31T13:13:14;98663.31;;;19.23;43.08
11605;BME280;5858;43.076;25.626;2023-03-31T13:15:49;98628.00;;;19.18;42.66
11605;BME280;5858;43.076;25.626;2023-03-31T13:18:19;98650.25;;;19.42;41.98
11605;BME280;5858;43.076;25.626;2023-03-31T13:20:57;98652.94;;;19.69;41.91
11605;BME280;5858;43.076;25.626;2023-03-31T13:23:24;98560.00;;;19.25;41.29
11605;BME280;5858;43.076;25.626;2023-03-31T13:25:53;98619.22;;;19.60;41.33
11605;BME280;5858;43.076;25.626;2023-03-31T13:28:31;98648.63;;;19.73;40.33
11605;BME280;5858;43.076;25.626;2023-03-31T13:31:00;98630.72;;;19.45;40.94
11605;BME280;5858;43.076;25.626;2023-03-31T13:33:41;98660.56;;;19.45;40.09
11605;BME280;5858;43.076;25.626;2023-03-31T13:39:55;98642.38;;;19.72;38.84
11605;BME280;5858;43.076;25.626;2023-03-31T13:45:47;98613.50;;;19.93;38.49
11605;BME280;5858;43.076;25.626;2023-03-31T13:48:35;98579.13;;;19.72;38.81
11605;BME280;5858;43.076;25.626;2023-03-31T13:51:18;98631.50;;;20.04;38.95
11605;BME280;5858;43.076;25.626;2023-03-31T13:57:29;98629.03;;;19.98;38.77
11605;BME280;5858;43.076;25.626;2023-03-31T14:00:25;98614.41;;;20.09;39.48